sensor_id;sensor_type;location;lat;lon;timestamp;temperature;humidity
41953;DHT22;63613;28.200;112.870;2022-10-16T00:01:40;23.70;51.50
41953;DHT22;63613;28.200;112.870;2022-10-16T00:04:07;23.70;51.50
41953;DHT22;63613;28.200;112.870;2022-10-16T00:06:35;23.70;51.50
41953;DHT22;63613;28.200;112.870;2022-10-16T00:09:02;23.70;51.50
41953;DHT22;63613;28.200;112.870;2022-10-16T00:11:33;23.80;51.50
41953;DHT22;63613;28.200;112.870;2022-10-16T00:14:02;23.80;51.50
41953;DHT22;63613;28.200;112.870;2022-10-16T00:16:34;23.80;51.50
41953;DHT22;63613;28.200;112.870;2022-10-16T00:19:01;23.80;51.40
41953;DHT22;63613;28.200;112.870;2022-10-16T00:21:32;23.80;51.40
41953;DHT22;63613;28.200;112.870;2022-10-16T00:24:07;23.80;51.40
41953;DHT22;63613;28.200;112.870;2022-10-16T00:26:37;23.80;51.40
41953;DHT22;63613;28.200;112.870;2022-10-16T00:29:05;23.90;51.20
41953;DHT22;63613;28.200;112.870;2022-10-16T00:31:32;23.90;51.20
41953;DHT22;63613;28.200;112.870;2022-10-16T00:33:59;23.80;51.30
41953;DHT22;63613;28.200;112.870;2022-10-16T00:36:27;23.90;51.30
41953;DHT22;63613;28.200;112.870;2022-10-16T00:38:55;23.90;51.30
41953;DHT22;63613;28.200;112.870;2022-10-16T00:41:24;24.00;51.30
41953;DHT22;63613;28.200;112.870;2022-10-16T00:43:57;24.00;51.30
41953;DHT22;63613;28.200;112.870;2022-10-16T00:46:44;24.00;51.40
41953;DHT22;63613;28.200;112.870;2022-10-16T00:49:13;24.00;51.40
41953;DHT22;63613;28.200;112.870;2022-10-16T00:51:52;24.00;51.30
41953;DHT22;63613;28.200;112.870;2022-10-16T00:54:40;24.00;51.40
41953;DHT22;63613;28.200;112.870;2022-10-16T00:57:07;24.00;51.40
41953;DHT22;63613;28.200;112.870;2022-10-16T00:59:39;24.10;51.30
41953;DHT22;63613;28.200;112.870;2022-10-16T01:02:09;24.00;51.30
41953;DHT22;63613;28.200;112.870;2022-10-16T01:04:44;24.10;51.30
41953;DHT22;63613;28.200;112.870;2022-10-16T01:07:37;24.10;51.30
41953;DHT22;63613;28.200;112.870;2022-10-16T01:20:42;24.30;51.00
41953;DHT22;63613;28.200;112.870;2022-10-16T01:26:30;24.40;51.20
41953;DHT22;63613;28.200;112.870;2022-10-16T01:31:53;24.50;51.10
41953;DHT22;63613;28.200;112.870;2022-10-16T01:34:32;24.60;51.20
41953;DHT22;63613;28.200;112.870;2022-10-16T01:37:15;24.50;51.00
41953;DHT22;63613;28.200;112.870;2022-10-16T01:39:45;24.60;50.80
41953;DHT22;63613;28.200;112.870;2022-10-16T01:42:26;24.60;50.10
41953;DHT22;63613;28.200;112.870;2022-10-16T01:44:56;24.70;50.10
41953;DHT22;63613;28.200;112.870;2022-10-16T01:47:26;24.80;50.20
41953;DHT22;63613;28.200;112.870;2022-10-16T01:49:55;24.80;50.40
41953;DHT22;63613;28.200;112.870;2022-10-16T01:52:27;24.80;50.20
41953;DHT22;63613;28.200;112.870;2022-10-16T01:54:56;24.80;50.00
41953;DHT22;63613;28.200;112.870;2022-10-16T01:57:25;24.90;49.90
41953;DHT22;63613;28.200;112.870;2022-10-16T01:59:56;24.90;49.90
41953;DHT22;63613;28.200;112.870;2022-10-16T02:02:28;25.00;49.90
41953;DHT22;63613;28.200;112.870;2022-10-16T02:05:02;25.00;49.90
41953;DHT22;63613;28.200;112.870;2022-10-16T02:07:30;25.00;49.70
41953;DHT22;63613;28.200;112.870;2022-10-16T02:09:59;25.10;49.40
41953;DHT22;63613;28.200;112.870;2022-10-16T02:12:30;25.20;49.50
41953;DHT22;63613;28.200;112.870;2022-10-16T02:14:59;25.20;49.90
41953;DHT22;63613;28.200;112.870;2022-10-16T02:17:26;25.30;50.20
41953;DHT22;63613;28.200;112.870;2022-10-16T02:19:55;25.30;50.40
41953;DHT22;63613;28.200;112.870;2022-10-16T02:22:28;25.30;50.70
41953;DHT22;63613;28.200;112.870;2022-10-16T02:25:10;25.40;50.40
41953;DHT22;63613;28.200;112.870;2022-10-16T02:27:51;25.50;49.50
41953;DHT22;63613;28.200;112.870;2022-10-16T02:30:45;25.50;50.10
41953;DHT22;63613;28.200;112.870;2022-10-16T02:33:15;25.50;50.50
41953;DHT22;63613;28.200;112.870;2022-10-16T02:35:44;25.60;50.50
41953;DHT22;63613;28.200;112.870;2022-10-16T02:38:15;25.60;50.50
41953;DHT22;63613;28.200;112.870;2022-10-16T02:40:43;25.70;49.70
41953;DHT22;63613;28.200;112.870;2022-10-16T02:43:30;25.70;49.20
41953;DHT22;63613;28.200;112.870;2022-10-16T02:45:57;25.70;48.70
41953;DHT22;63613;28.200;112.870;2022-10-16T02:48:24;25.80;47.60
41953;DHT22;63613;28.200;112.870;2022-10-16T02:50:51;25.80;47.50
41953;DHT22;63613;28.200;112.870;2022-10-16T02:53:18;25.80;47.60
41953;DHT22;63613;28.200;112.870;2022-10-16T02:55:45;25.80;47.70
41953;DHT22;63613;28.200;112.870;2022-10-16T02:58:12;25.90;46.90
41953;DHT22;63613;28.200;112.870;2022-10-16T03:00:40;25.90;47.20
41953;DHT22;63613;28.200;112.870;2022-10-16T03:03:07;25.90;46.80
41953;DHT22;63613;28.200;112.870;2022-10-16T03:05:34;25.90;46.30
41953;DHT22;63613;28.200;112.870;2022-10-16T03:08:01;26.00;46.30
41953;DHT22;63613;28.200;112.870;2022-10-16T03:10:28;26.00;45.80
41953;DHT22;63613;28.200;112.870;2022-10-16T03:13:15;26.10;45.50
41953;DHT22;63613;28.200;112.870;2022-10-16T03:15:43;26.10;45.40
41953;DHT22;63613;28.200;112.870;2022-10-16T03:18:13;26.10;45.20
41953;DHT22;63613;28.200;112.870;2022-10-16T03:20:42;26.10;45.10
41953;DHT22;63613;28.200;112.870;2022-10-16T03:23:09;26.20;44.90
41953;DHT22;63613;28.200;112.870;2022-10-16T03:25:36;26.20;44.70
41953;DHT22;63613;28.200;112.870;2022-10-16T03:28:03;26.20;44.30
41953;DHT22;63613;28.200;112.870;2022-10-16T03:30:30;26.20;44.50
41953;DHT22;63613;28.200;112.870;2022-10-16T03:32:57;26.30;44.40
41953;DHT22;63613;28.200;112.870;2022-10-16T03:35:25;26.30;44.30
41953;DHT22;63613;28.200;112.870;2022-10-16T03:37:52;26.30;44.20
41953;DHT22;63613;28.200;112.870;2022-10-16T03:40:19;26.30;44.10
41953;DHT22;63613;28.200;112.870;2022-10-16T03:42:47;26.40;43.90
41953;DHT22;63613;28.200;112.870;2022-10-16T03:45:14;26.40;43.70
41953;DHT22;63613;28.200;112.870;2022-10-16T03:47:41;26.50;44.10
41953;DHT22;63613;28.200;112.870;2022-10-16T03:50:08;26.50;44.00
41953;DHT22;63613;28.200;112.870;2022-10-16T03:52:56;26.50;43.70
41953;DHT22;63613;28.200;112.870;2022-10-16T03:55:23;26.50;43.70
41953;DHT22;63613;28.200;112.870;2022-10-16T03:58:10;26.60;43.30
41953;DHT22;63613;28.200;112.870;2022-10-16T04:00:44;26.60;43.10
41953;DHT22;63613;28.200;112.870;2022-10-16T04:03:16;26.70;43.10
41953;DHT22;63613;28.200;112.870;2022-10-16T04:05:45;26.70;42.90
41953;DHT22;63613;28.200;112.870;2022-10-16T04:08:12;26.70;42.90
41953;DHT22;63613;28.200;112.870;2022-10-16T04:10:39;26.70;42.40
41953;DHT22;63613;28.200;112.870;2022-10-16T04:13:06;26.70;42.90
41953;DHT22;63613;28.200;112.870;2022-10-16T04:15:33;26.70;43.10
41953;DHT22;63613;28.200;112.870;2022-10-16T04:18:00;26.80;43.00
41953;DHT22;63613;28.200;112.870;2022-10-16T04:20:28;26.80;42.90
41953;DHT22;63613;28.200;112.870;2022-10-16T04:22:56;26.80;43.00
41953;DHT22;63613;28.200;112.870;2022-10-16T04:25:23;26.80;43.00
41953;DHT22;63613;28.200;112.870;2022-10-16T04:27:53;26.90;42.80
41953;DHT22;63613;28.200;112.870;2022-10-16T04:30:21;26.90;43.40
41953;DHT22;63613;28.200;112.870;2022-10-16T04:32:49;27.00;43.60
41953;DHT22;63613;28.200;112.870;2022-10-16T04:35:20;27.00;44.80
41953;DHT22;63613;28.200;112.870;2022-10-16T04:37:48;27.00;44.10
41953;DHT22;63613;28.200;112.870;2022-10-16T04:40:18;27.00;43.70
41953;DHT22;63613;28.200;112.870;2022-10-16T04:42:45;27.20;44.70
41953;DHT22;63613;28.200;112.870;2022-10-16T04:45:12;27.20;44.50
41953;DHT22;63613;28.200;112.870;2022-10-16T04:47:39;27.20;44.10
41953;DHT22;63613;28.200;112.870;2022-10-16T04:50:06;27.20;43.40
41953;DHT22;63613;28.200;112.870;2022-10-16T04:52:34;27.20;42.90
41953;DHT22;63613;28.200;112.870;2022-10-16T04:55:01;27.20;42.80
41953;DHT22;63613;28.200;112.870;2022-10-16T04:57:32;27.20;42.30
41953;DHT22;63613;28.200;112.870;2022-10-16T05:00:03;27.20;42.00
41953;DHT22;63613;28.200;112.870;2022-10-16T05:02:50;27.30;41.40
41953;DHT22;63613;28.200;112.870;2022-10-16T05:05:18;27.30;41.40
41953;DHT22;63613;28.200;112.870;2022-10-16T05:07:48;27.30;41.00
41953;DHT22;63613;28.200;112.870;2022-10-16T05:10:16;27.30;40.80
41953;DHT22;63613;28.200;112.870;2022-10-16T05:12:43;27.30;40.80
41953;DHT22;63613;28.200;112.870;2022-10-16T05:15:11;27.30;40.50
41953;DHT22;63613;28.200;112.870;2022-10-16T05:17:38;27.30;40.60
41953;DHT22;63613;28.200;112.870;2022-10-16T05:20:05;27.40;40.30
41953;DHT22;63613;28.200;112.870;2022-10-16T05:22:33;27.40;40.30
41953;DHT22;63613;28.200;112.870;2022-10-16T05:25:00;27.40;40.20
41953;DHT22;63613;28.200;112.870;2022-10-16T05:27:27;27.50;39.90
41953;DHT22;63613;28.200;112.870;2022-10-16T05:29:54;27.50;39.80
41953;DHT22;63613;28.200;112.870;2022-10-16T05:32:21;27.50;39.50
41953;DHT22;63613;28.200;112.870;2022-10-16T05:34:48;27.50;39.60
41953;DHT22;63613;28.200;112.870;2022-10-16T05:37:15;27.50;39.40
41953;DHT22;63613;28.200;112.870;2022-10-16T05:39:44;27.50;39.20
41953;DHT22;63613;28.200;112.870;2022-10-16T05:42:11;27.50;39.30
41953;DHT22;63613;28.200;112.870;2022-10-16T05:44:38;27.60;39.80
41953;DHT22;63613;28.200;112.870;2022-10-16T05:47:25;27.50;39.90
41953;DHT22;63613;28.200;112.870;2022-10-16T05:49:53;27.50;39.20
41953;DHT22;63613;28.200;112.870;2022-10-16T05:52:20;27.60;38.70
41953;DHT22;63613;28.200;112.870;2022-10-16T05:54:47;27.60;38.80
41953;DHT22;63613;28.200;112.870;2022-10-16T05:57:14;27.60;38.90
41953;DHT22;63613;28.200;112.870;2022-10-16T05:59:44;27.60;38.50
41953;DHT22;63613;28.200;112.870;2022-10-16T06:02:21;27.50;38.30
41953;DHT22;63613;28.200;112.870;2022-10-16T06:04:53;27.50;37.90
41953;DHT22;63613;28.200;112.870;2022-10-16T06:07:21;27.50;37.80
41953;DHT22;63613;28.200;112.870;2022-10-16T06:09:50;27.50;37.50
41953;DHT22;63613;28.200;112.870;2022-10-16T06:12:19;27.50;37.40
41953;DHT22;63613;28.200;112.870;2022-10-16T06:14:46;27.50;37.50
41953;DHT22;63613;28.200;112.870;2022-10-16T06:17:16;27.50;37.00
41953;DHT22;63613;28.200;112.870;2022-10-16T06:19:43;27.60;37.30
41953;DHT22;63613;28.200;112.870;2022-10-16T06:22:11;27.60;37.30
41953;DHT22;63613;28.200;112.870;2022-10-16T06:24:38;27.60;37.10
41953;DHT22;63613;28.200;112.870;2022-10-16T06:27:06;27.60;37.10
41953;DHT22;63613;28.200;112.870;2022-10-16T06:29:35;27.70;36.90
41953;DHT22;63613;28.200;112.870;2022-10-16T06:32:02;27.70;36.80
41953;DHT22;63613;28.200;112.870;2022-10-16T06:34:29;27.70;36.30
41953;DHT22;63613;28.200;112.870;2022-10-16T06:36:56;27.70;36.60
41953;DHT22;63613;28.200;112.870;2022-10-16T06:39:23;27.80;36.50
41953;DHT22;63613;28.200;112.870;2022-10-16T06:42:10;27.80;36.70
41953;DHT22;63613;28.200;112.870;2022-10-16T06:44:37;27.80;36.60
41953;DHT22;63613;28.200;112.870;2022-10-16T06:47:04;27.80;36.60
41953;DHT22;63613;28.200;112.870;2022-10-16T06:49:31;27.80;36.60
41953;DHT22;63613;28.200;112.870;2022-10-16T06:51:58;27.80;36.50
41953;DHT22;63613;28.200;112.870;2022-10-16T06:54:25;27.80;36.50
41953;DHT22;63613;28.200;112.870;2022-10-16T06:56:54;27.70;36.60
41953;DHT22;63613;28.200;112.870;2022-10-16T06:59:21;27.70;36.50
41953;DHT22;63613;28.200;112.870;2022-10-16T07:01:49;27.70;36.40
41953;DHT22;63613;28.200;112.870;2022-10-16T07:04:18;27.80;36.30
41953;DHT22;63613;28.200;112.870;2022-10-16T07:07:05;27.80;36.20
41953;DHT22;63613;28.200;112.870;2022-10-16T07:09:33;27.80;36.00
41953;DHT22;63613;28.200;112.870;2022-10-16T07:12:00;27.80;35.80
41953;DHT22;63613;28.200;112.870;2022-10-16T07:14:27;27.80;35.70
41953;DHT22;63613;28.200;112.870;2022-10-16T07:16:54;27.70;35.70
41953;DHT22;63613;28.200;112.870;2022-10-16T07:19:21;27.80;35.70
41953;DHT22;63613;28.200;112.870;2022-10-16T07:21:48;27.80;35.70
41953;DHT22;63613;28.200;112.870;2022-10-16T07:24:16;27.90;35.70
41953;DHT22;63613;28.200;112.870;2022-10-16T07:26:45;27.80;35.40
41953;DHT22;63613;28.200;112.870;2022-10-16T07:29:18;27.80;35.50
41953;DHT22;63613;28.200;112.870;2022-10-16T07:31:47;27.80;35.50
41953;DHT22;63613;28.200;112.870;2022-10-16T07:34:15;27.70;35.50
41953;DHT22;63613;28.200;112.870;2022-10-16T07:36:42;27.70;35.50
41953;DHT22;63613;28.200;112.870;2022-10-16T07:39:09;27.70;35.80
41953;DHT22;63613;28.200;112.870;2022-10-16T07:41:36;27.70;35.70
41953;DHT22;63613;28.200;112.870;2022-10-16T07:44:04;27.80;35.80
41953;DHT22;63613;28.200;112.870;2022-10-16T07:46:31;27.70;36.10
41953;DHT22;63613;28.200;112.870;2022-10-16T07:49:20;27.70;36.30
41953;DHT22;63613;28.200;112.870;2022-10-16T07:51:55;27.70;36.60
41953;DHT22;63613;28.200;112.870;2022-10-16T07:54:25;27.70;36.70
41953;DHT22;63613;28.200;112.870;2022-10-16T07:56:52;27.70;36.70
41953;DHT22;63613;28.200;112.870;2022-10-16T07:59:19;27.70;36.60
41953;DHT22;63613;28.200;112.870;2022-10-16T08:01:48;27.70;36.60
41953;DHT22;63613;28.200;112.870;2022-10-16T08:04:15;27.60;36.30
41953;DHT22;63613;28.200;112.870;2022-10-16T08:06:43;27.70;36.30
41953;DHT22;63613;28.200;112.870;2022-10-16T08:09:30;27.70;36.20
41953;DHT22;63613;28.200;112.870;2022-10-16T08:11:57;27.70;36.20
41953;DHT22;63613;28.200;112.870;2022-10-16T08:14:24;27.70;35.90
41953;DHT22;63613;28.200;112.870;2022-10-16T08:16:51;27.70;35.70
41953;DHT22;63613;28.200;112.870;2022-10-16T08:19:19;27.60;35.80
41953;DHT22;63613;28.200;112.870;2022-10-16T08:21:49;27.70;35.90
41953;DHT22;63613;28.200;112.870;2022-10-16T08:24:16;27.60;35.80
41953;DHT22;63613;28.200;112.870;2022-10-16T08:26:43;27.70;35.80
41953;DHT22;63613;28.200;112.870;2022-10-16T08:29:30;27.60;35.60
41953;DHT22;63613;28.200;112.870;2022-10-16T08:31:57;27.50;35.60
41953;DHT22;63613;28.200;112.870;2022-10-16T08:34:24;27.50;35.50
41953;DHT22;63613;28.200;112.870;2022-10-16T08:36:53;27.50;35.20
41953;DHT22;63613;28.200;112.870;2022-10-16T08:39:21;27.50;34.90
41953;DHT22;63613;28.200;112.870;2022-10-16T08:42:11;27.50;34.60
41953;DHT22;63613;28.200;112.870;2022-10-16T08:50:32;27.30;34.70
41953;DHT22;63613;28.200;112.870;2022-10-16T08:53:04;27.30;34.30
41953;DHT22;63613;28.200;112.870;2022-10-16T08:55:52;27.30;34.20
41953;DHT22;63613;28.200;112.870;2022-10-16T08:58:30;27.30;34.20
41953;DHT22;63613;28.200;112.870;2022-10-16T09:01:00;27.20;34.20
41953;DHT22;63613;28.200;112.870;2022-10-16T09:06:32;27.20;35.10
41953;DHT22;63613;28.200;112.870;2022-10-16T09:14:46;27.00;36.30
41953;DHT22;63613;28.200;112.870;2022-10-16T09:17:37;27.00;36.60
41953;DHT22;63613;28.200;112.870;2022-10-16T09:20:39;26.90;37.00
41953;DHT22;63613;28.200;112.870;2022-10-16T09:23:18;26.90;37.30
41953;DHT22;63613;28.200;112.870;2022-10-16T09:25:48;26.90;37.50
41953;DHT22;63613;28.200;112.870;2022-10-16T09:28:17;26.80;37.80
41953;DHT22;63613;28.200;112.870;2022-10-16T09:30:45;26.80;38.00
41953;DHT22;63613;28.200;112.870;2022-10-16T09:33:15;26.80;38.10
41953;DHT22;63613;28.200;112.870;2022-10-16T09:35:45;26.80;38.20
41953;DHT22;63613;28.200;112.870;2022-10-16T09:38:28;26.70;38.30
41953;DHT22;63613;28.200;112.870;2022-10-16T09:41:19;26.70;38.40
41953;DHT22;63613;28.200;112.870;2022-10-16T09:43:57;26.60;38.50
41953;DHT22;63613;28.200;112.870;2022-10-16T09:46:35;26.60;38.60
41953;DHT22;63613;28.200;112.870;2022-10-16T09:49:16;26.60;38.90
41953;DHT22;63613;28.200;112.870;2022-10-16T09:51:45;26.60;39.00
41953;DHT22;63613;28.200;112.870;2022-10-16T09:54:14;26.60;39.10
41953;DHT22;63613;28.200;112.870;2022-10-16T09:56:41;26.50;39.20
41953;DHT22;63613;28.200;112.870;2022-10-16T09:59:18;26.50;39.30
41953;DHT22;63613;28.200;112.870;2022-10-16T10:01:47;26.40;39.60
41953;DHT22;63613;28.200;112.870;2022-10-16T10:04:15;26.40;39.60
41953;DHT22;63613;28.200;112.870;2022-10-16T10:06:54;26.50;39.70
41953;DHT22;63613;28.200;112.870;2022-10-16T10:09:29;26.40;39.80
41953;DHT22;63613;28.200;112.870;2022-10-16T10:12:03;26.30;39.90
41953;DHT22;63613;28.200;112.870;2022-10-16T10:19:50;26.30;40.20
41953;DHT22;63613;28.200;112.870;2022-10-16T10:22:26;26.30;40.30
41953;DHT22;63613;28.200;112.870;2022-10-16T10:25:14;26.30;40.30
41953;DHT22;63613;28.200;112.870;2022-10-16T10:33:11;26.20;40.70
41953;DHT22;63613;28.200;112.870;2022-10-16T10:47:27;26.10;41.00
41953;DHT22;63613;28.200;112.870;2022-10-16T11:07:43;26.00;40.20
41953;DHT22;63613;28.200;112.870;2022-10-16T11:10:31;26.00;40.40
41953;DHT22;63613;28.200;112.870;2022-10-16T11:16:35;26.00;40.70
41953;DHT22;63613;28.200;112.870;2022-10-16T11:24:57;26.00;40.30
41953;DHT22;63613;28.200;112.870;2022-10-16T11:27:48;26.00;39.40
41953;DHT22;63613;28.200;112.870;2022-10-16T11:38:53;25.90;39.50
41953;DHT22;63613;28.200;112.870;2022-10-16T11:44:44;25.90;39.20
41953;DHT22;63613;28.200;112.870;2022-10-16T11:55:46;25.80;39.30
41953;DHT22;63613;28.200;112.870;2022-10-16T12:04:13;25.80;39.90
41953;DHT22;63613;28.200;112.870;2022-10-16T12:06:44;25.70;39.30
41953;DHT22;63613;28.200;112.870;2022-10-16T12:09:30;25.80;40.20
41953;DHT22;63613;28.200;112.870;2022-10-16T12:11:58;25.80;40.80
41953;DHT22;63613;28.200;112.870;2022-10-16T12:16:58;25.80;40.40
41953;DHT22;63613;28.200;112.870;2022-10-16T12:19:30;25.80;40.40
41953;DHT22;63613;28.200;112.870;2022-10-16T12:22:00;25.80;40.30
41953;DHT22;63613;28.200;112.870;2022-10-16T12:24:39;25.80;40.30
41953;DHT22;63613;28.200;112.870;2022-10-16T12:27:32;25.80;40.30
41953;DHT22;63613;28.200;112.870;2022-10-16T12:30:22;25.80;40.40
41953;DHT22;63613;28.200;112.870;2022-10-16T12:33:03;25.90;40.20
41953;DHT22;63613;28.200;112.870;2022-10-16T12:35:42;25.90;40.30
41953;DHT22;63613;28.200;112.870;2022-10-16T12:38:27;25.90;40.30
41953;DHT22;63613;28.200;112.870;2022-10-16T12:41:07;25.90;40.30
41953;DHT22;63613;28.200;112.870;2022-10-16T12:43:47;26.00;40.20
41953;DHT22;63613;28.200;112.870;2022-10-16T12:48:43;25.90;40.40
41953;DHT22;63613;28.200;112.870;2022-10-16T12:54:19;25.90;40.50
41953;DHT22;63613;28.200;112.870;2022-10-16T12:59:49;25.90;40.40
41953;DHT22;63613;28.200;112.870;2022-10-16T13:10:37;25.90;40.50
41953;DHT22;63613;28.200;112.870;2022-10-16T13:13:35;25.90;40.20
41953;DHT22;63613;28.200;112.870;2022-10-16T13:30:18;25.90;39.90
41953;DHT22;63613;28.200;112.870;2022-10-16T13:35:57;25.90;39.90
41953;DHT22;63613;28.200;112.870;2022-10-16T13:38:26;25.90;39.80
41953;DHT22;63613;28.200;112.870;2022-10-16T13:41:02;25.90;39.80
41953;DHT22;63613;28.200;112.870;2022-10-16T13:46:20;25.90;40.00
41953;DHT22;63613;28.200;112.870;2022-10-16T13:48:59;25.80;40.30
41953;DHT22;63613;28.200;112.870;2022-10-16T13:51:27;25.90;40.20
41953;DHT22;63613;28.200;112.870;2022-10-16T13:53:56;25.90;40.30
41953;DHT22;63613;28.200;112.870;2022-10-16T13:56:27;25.80;40.30
41953;DHT22;63613;28.200;112.870;2022-10-16T13:59:05;25.90;40.50
41953;DHT22;63613;28.200;112.870;2022-10-16T14:01:43;25.80;40.70
41953;DHT22;63613;28.200;112.870;2022-10-16T14:04:12;25.80;40.40
41953;DHT22;63613;28.200;112.870;2022-10-16T14:06:45;25.80;40.40
41953;DHT22;63613;28.200;112.870;2022-10-16T14:09:31;25.80;40.40
41953;DHT22;63613;28.200;112.870;2022-10-16T14:12:06;25.80;40.90
41953;DHT22;63613;28.200;112.870;2022-10-16T14:14:54;25.80;40.80
41953;DHT22;63613;28.200;112.870;2022-10-16T14:17:33;25.80;41.00
41953;DHT22;63613;28.200;112.870;2022-10-16T14:20:04;25.80;40.90
41953;DHT22;63613;28.200;112.870;2022-10-16T14:22:40;25.80;40.80
41953;DHT22;63613;28.200;112.870;2022-10-16T14:25:37;25.80;40.70
41953;DHT22;63613;28.200;112.870;2022-10-16T14:30:57;25.80;40.90
41953;DHT22;63613;28.200;112.870;2022-10-16T14:33:32;25.80;41.00
41953;DHT22;63613;28.200;112.870;2022-10-16T14:36:12;25.80;40.70
41953;DHT22;63613;28.200;112.870;2022-10-16T14:38:47;25.80;41.00
41953;DHT22;63613;28.200;112.870;2022-10-16T14:41:15;25.80;40.80
41953;DHT22;63613;28.200;112.870;2022-10-16T14:43:51;25.80;40.80
41953;DHT22;63613;28.200;112.870;2022-10-16T14:46:35;25.70;40.20
41953;DHT22;63613;28.200;112.870;2022-10-16T14:51:58;25.70;40.30
41953;DHT22;63613;28.200;112.870;2022-10-16T14:54:25;25.70;41.20
41953;DHT22;63613;28.200;112.870;2022-10-16T14:56:57;25.80;41.30
41953;DHT22;63613;28.200;112.870;2022-10-16T15:02:16;25.70;41.90
41953;DHT22;63613;28.200;112.870;2022-10-16T15:04:45;25.70;41.90
41953;DHT22;63613;28.200;112.870;2022-10-16T15:07:15;25.70;42.30
41953;DHT22;63613;28.200;112.870;2022-10-16T15:09:42;25.70;42.20
41953;DHT22;63613;28.200;112.870;2022-10-16T15:12:10;25.70;42.20
41953;DHT22;63613;28.200;112.870;2022-10-16T15:14:38;25.70;42.40
41953;DHT22;63613;28.200;112.870;2022-10-16T15:17:05;25.70;42.10
41953;DHT22;63613;28.200;112.870;2022-10-16T15:19:36;25.60;42.10
41953;DHT22;63613;28.200;112.870;2022-10-16T15:22:03;25.60;42.10
41953;DHT22;63613;28.200;112.870;2022-10-16T15:24:33;25.60;42.20
41953;DHT22;63613;28.200;112.870;2022-10-16T15:27:00;25.60;42.40
41953;DHT22;63613;28.200;112.870;2022-10-16T15:29:27;25.60;42.40
41953;DHT22;63613;28.200;112.870;2022-10-16T15:31:55;25.60;42.30
41953;DHT22;63613;28.200;112.870;2022-10-16T15:34:24;25.60;42.40
41953;DHT22;63613;28.200;112.870;2022-10-16T15:36:55;25.50;42.50
41953;DHT22;63613;28.200;112.870;2022-10-16T15:39:24;25.50;42.40
41953;DHT22;63613;28.200;112.870;2022-10-16T15:41:54;25.40;42.50
41953;DHT22;63613;28.200;112.870;2022-10-16T15:44:24;25.40;42.60
41953;DHT22;63613;28.200;112.870;2022-10-16T15:46:56;25.50;42.70
41953;DHT22;63613;28.200;112.870;2022-10-16T15:49:24;25.50;42.90
41953;DHT22;63613;28.200;112.870;2022-10-16T15:51:51;25.50;42.90
41953;DHT22;63613;28.200;112.870;2022-10-16T15:54:19;25.50;43.00
41953;DHT22;63613;28.200;112.870;2022-10-16T15:56:50;25.50;43.20
41953;DHT22;63613;28.200;112.870;2022-10-16T15:59:18;25.50;43.30
41953;DHT22;63613;28.200;112.870;2022-10-16T16:01:45;25.50;43.10
41953;DHT22;63613;28.200;112.870;2022-10-16T16:04:12;25.40;43.20
41953;DHT22;63613;28.200;112.870;2022-10-16T16:06:42;25.50;43.10
41953;DHT22;63613;28.200;112.870;2022-10-16T16:09:15;25.40;43.20
41953;DHT22;63613;28.200;112.870;2022-10-16T16:11:42;25.40;43.50
41953;DHT22;63613;28.200;112.870;2022-10-16T16:14:13;25.40;43.20
41953;DHT22;63613;28.200;112.870;2022-10-16T16:16:41;25.40;43.00
41953;DHT22;63613;28.200;112.870;2022-10-16T16:19:11;25.40;43.30
41953;DHT22;63613;28.200;112.870;2022-10-16T16:21:44;25.30;43.30
41953;DHT22;63613;28.200;112.870;2022-10-16T16:24:14;25.30;43.40
41953;DHT22;63613;28.200;112.870;2022-10-16T16:26:43;25.40;43.60
41953;DHT22;63613;28.200;112.870;2022-10-16T16:29:16;25.30;43.30
41953;DHT22;63613;28.200;112.870;2022-10-16T16:31:44;25.20;43.20
41953;DHT22;63613;28.200;112.870;2022-10-16T16:34:13;25.20;43.30
41953;DHT22;63613;28.200;112.870;2022-10-16T16:36:41;25.30;43.20
41953;DHT22;63613;28.200;112.870;2022-10-16T16:39:08;25.30;43.60
41953;DHT22;63613;28.200;112.870;2022-10-16T16:41:36;25.30;43.50
41953;DHT22;63613;28.200;112.870;2022-10-16T16:44:05;25.30;43.70
41953;DHT22;63613;28.200;112.870;2022-10-16T16:46:34;25.40;43.80
41953;DHT22;63613;28.200;112.870;2022-10-16T16:49:02;25.40;43.80
41953;DHT22;63613;28.200;112.870;2022-10-16T16:51:33;25.30;43.70
41953;DHT22;63613;28.200;112.870;2022-10-16T16:54:01;25.30;43.60
41953;DHT22;63613;28.200;112.870;2022-10-16T16:56:31;25.30;43.80
41953;DHT22;63613;28.200;112.870;2022-10-16T16:58:58;25.30;43.70
41953;DHT22;63613;28.200;112.870;2022-10-16T17:01:29;25.30;43.90
41953;DHT22;63613;28.200;112.870;2022-10-16T17:03:58;25.30;44.20
41953;DHT22;63613;28.200;112.870;2022-10-16T17:06:28;25.30;44.30
41953;DHT22;63613;28.200;112.870;2022-10-16T17:09:03;25.30;44.30
41953;DHT22;63613;28.200;112.870;2022-10-16T17:11:34;25.30;44.40
41953;DHT22;63613;28.200;112.870;2022-10-16T17:14:03;25.30;44.30
41953;DHT22;63613;28.200;112.870;2022-10-16T17:16:35;25.30;44.40
41953;DHT22;63613;28.200;112.870;2022-10-16T17:19:09;25.30;44.40
41953;DHT22;63613;28.200;112.870;2022-10-16T17:21:38;25.30;44.60
41953;DHT22;63613;28.200;112.870;2022-10-16T17:24:07;25.20;44.70
41953;DHT22;63613;28.200;112.870;2022-10-16T17:26:36;25.30;44.90
41953;DHT22;63613;28.200;112.870;2022-10-16T17:29:05;25.20;44.80
41953;DHT22;63613;28.200;112.870;2022-10-16T17:31:35;25.20;45.00
41953;DHT22;63613;28.200;112.870;2022-10-16T17:34:06;25.30;45.00
41953;DHT22;63613;28.200;112.870;2022-10-16T17:36:35;25.20;45.10
41953;DHT22;63613;28.200;112.870;2022-10-16T17:39:07;25.20;45.20
41953;DHT22;63613;28.200;112.870;2022-10-16T17:41:35;25.20;45.40
41953;DHT22;63613;28.200;112.870;2022-10-16T17:44:04;25.10;45.50
41953;DHT22;63613;28.200;112.870;2022-10-16T17:46:31;25.20;45.50
41953;DHT22;63613;28.200;112.870;2022-10-16T17:48:58;25.20;45.80
41953;DHT22;63613;28.200;112.870;2022-10-16T17:51:29;25.20;45.70
41953;DHT22;63613;28.200;112.870;2022-10-16T17:53:58;25.10;45.80
41953;DHT22;63613;28.200;112.870;2022-10-16T17:56:27;25.20;45.90
41953;DHT22;63613;28.200;112.870;2022-10-16T17:58:57;25.20;45.90
41953;DHT22;63613;28.200;112.870;2022-10-16T18:01:29;25.20;46.00
41953;DHT22;63613;28.200;112.870;2022-10-16T18:03:59;25.10;46.20